sensor_id;sensor_type;location;lat;lon;timestamp;pressure;altitude;pressure_sealevel;temperature;humidity
13235;BME280;6683;48.506;9.050;2023-01-27T00:00:29;98320.31;;;2.93;69.04
13235;BME280;6683;48.506;9.050;2023-01-27T00:03:32;98315.25;;;2.91;69.16
13235;BME280;6683;48.506;9.050;2023-01-27T00:06:35;98316.19;;;2.90;69.55
13235;BME280;6683;48.506;9.050;2023-01-27T00:09:38;98322.25;;;2.91;69.58
13235;BME280;6683;48.506;9.050;2023-01-27T00:12:42;98317.03;;;2.91;69.38
13235;BME280;6683;48.506;9.050;2023-01-27T00:16:03;98307.56;;;2.90;69.37
13235;BME280;6683;48.506;9.050;2023-01-27T00:19:05;98319.78;;;2.89;68.95
13235;BME280;6683;48.506;9.050;2023-01-27T00:22:08;98310.44;;;2.87;69.20
13235;BME280;6683;48.506;9.050;2023-01-27T00:25:30;98306.16;;;2.86;69.59
13235;BME280;6683;48.506;9.050;2023-01-27T00:28:33;98304.53;;;2.85;69.40
13235;BME280;6683;48.506;9.050;2023-01-27T00:31:36;98306.47;;;2.83;69.48
13235;BME280;6683;48.506;9.050;2023-01-27T00:34:55;98299.47;;;2.83;70.09
13235;BME280;6683;48.506;9.050;2023-01-27T00:37:58;98309.59;;;2.86;69.71
13235;BME280;6683;48.506;9.050;2023-01-27T00:41:03;98310.28;;;2.88;69.52
13235;BME280;6683;48.506;9.050;2023-01-27T00:44:20;98303.31;;;2.89;68.97
13235;BME280;6683;48.506;9.050;2023-01-27T00:47:23;98307.00;;;2.86;69.43
13235;BME280;6683;48.506;9.050;2023-01-27T00:50:26;98309.59;;;2.86;69.44
13235;BME280;6683;48.506;9.050;2023-01-27T00:53:30;98310.69;;;2.84;69.34
13235;BME280;6683;48.506;9.050;2023-01-27T00:56:34;98313.44;;;2.82;69.36
13235;BME280;6683;48.506;9.050;2023-01-27T00:59:37;98310.16;;;2.80;69.46
13235;BME280;6683;48.506;9.050;2023-01-27T01:02:40;98311.13;;;2.79;68.97
13235;BME280;6683;48.506;9.050;2023-01-27T01:05:43;98317.44;;;2.77;69.10
13235;BME280;6683;48.506;9.050;2023-01-27T01:08:45;98311.38;;;2.76;69.05
13235;BME280;6683;48.506;9.050;2023-01-27T01:11:50;98318.66;;;2.73;69.31
13235;BME280;6683;48.506;9.050;2023-01-27T01:14:52;98311.94;;;2.70;69.23
13235;BME280;6683;48.506;9.050;2023-01-27T01:17:54;98315.63;;;2.68;69.15
13235;BME280;6683;48.506;9.050;2023-01-27T01:20:57;98309.72;;;2.66;69.38
13235;BME280;6683;48.506;9.050;2023-01-27T01:24:00;98316.59;;;2.67;69.58
13235;BME280;6683;48.506;9.050;2023-01-27T01:27:04;98321.66;;;2.68;69.45
13235;BME280;6683;48.506;9.050;2023-01-27T01:30:08;98318.91;;;2.70;69.22
13235;BME280;6683;48.506;9.050;2023-01-27T01:33:11;98323.28;;;2.69;69.56
13235;BME280;6683;48.506;9.050;2023-01-27T01:36:16;98321.53;;;2.70;69.15
13235;BME280;6683;48.506;9.050;2023-01-27T01:39:19;98319.88;;;2.69;69.48
13235;BME280;6683;48.506;9.050;2023-01-27T01:42:23;98314.69;;;2.69;69.49
13235;BME280;6683;48.506;9.050;2023-01-27T01:45:46;98319.19;;;2.67;69.38
13235;BME280;6683;48.506;9.050;2023-01-27T01:48:52;98321.81;;;2.67;69.62
13235;BME280;6683;48.506;9.050;2023-01-27T01:51:58;98322.59;;;2.67;69.34
13235;BME280;6683;48.506;9.050;2023-01-27T01:55:01;98316.31;;;2.70;69.42
13235;BME280;6683;48.506;9.050;2023-01-27T01:58:06;98318.91;;;2.70;69.47
13235;BME280;6683;48.506;9.050;2023-01-27T02:01:10;98308.50;;;2.70;69.33
13235;BME280;6683;48.506;9.050;2023-01-27T02:04:17;98306.84;;;2.69;69.44
13235;BME280;6683;48.506;9.050;2023-01-27T02:07:25;98309.31;;;2.70;69.61
13235;BME280;6683;48.506;9.050;2023-01-27T02:10:31;98302.44;;;2.69;69.53
13235;BME280;6683;48.506;9.050;2023-01-27T02:13:36;98293.13;;;2.67;68.87
13235;BME280;6683;48.506;9.050;2023-01-27T02:16:39;98302.59;;;2.68;69.56
13235;BME280;6683;48.506;9.050;2023-01-27T02:19:53;98286.00;;;2.69;69.64
13235;BME280;6683;48.506;9.050;2023-01-27T02:23:06;98288.72;;;2.67;69.58
13235;BME280;6683;48.506;9.050;2023-01-27T02:26:17;98291.34;;;2.67;69.48
13235;BME280;6683;48.506;9.050;2023-01-27T02:29:20;98279.28;;;2.66;69.70
13235;BME280;6683;48.506;9.050;2023-01-27T02:32:24;98284.50;;;2.66;69.12
13235;BME280;6683;48.506;9.050;2023-01-27T02:35:32;98294.91;;;2.66;69.27
13235;BME280;6683;48.506;9.050;2023-01-27T02:38:41;98280.22;;;2.65;69.50
13235;BME280;6683;48.506;9.050;2023-01-27T02:41:48;98285.19;;;2.68;69.53
13235;BME280;6683;48.506;9.050;2023-01-27T02:44:52;98285.19;;;2.68;69.32
13235;BME280;6683;48.506;9.050;2023-01-27T02:47:55;98282.72;;;2.67;69.08
13235;BME280;6683;48.506;9.050;2023-01-27T02:50:57;98274.91;;;2.67;69.76
13235;BME280;6683;48.506;9.050;2023-01-27T02:54:00;98281.75;;;2.68;69.70
13235;BME280;6683;48.506;9.050;2023-01-27T02:57:03;98286.13;;;2.67;69.46
13235;BME280;6683;48.506;9.050;2023-01-27T03:00:07;98289.56;;;2.68;69.59
13235;BME280;6683;48.506;9.050;2023-01-27T03:03:13;98281.06;;;2.66;69.31
13235;BME280;6683;48.506;9.050;2023-01-27T03:06:16;98281.88;;;2.66;69.71
13235;BME280;6683;48.506;9.050;2023-01-27T03:09:19;98286.13;;;2.67;69.76
13235;BME280;6683;48.506;9.050;2023-01-27T03:12:23;98280.09;;;2.67;69.22
13235;BME280;6683;48.506;9.050;2023-01-27T03:15:25;98291.34;;;2.67;69.58
13235;BME280;6683;48.506;9.050;2023-01-27T03:18:46;98289.56;;;2.68;69.61
13235;BME280;6683;48.506;9.050;2023-01-27T03:21:49;98283.50;;;2.67;69.67
13235;BME280;6683;48.506;9.050;2023-01-27T03:24:54;98278.19;;;2.69;69.48
13235;BME280;6683;48.506;9.050;2023-01-27T03:27:58;98277.22;;;2.70;69.33
13235;BME280;6683;48.506;9.050;2023-01-27T03:31:01;98280.81;;;2.69;69.05
13235;BME280;6683;48.506;9.050;2023-01-27T03:34:04;98282.56;;;2.68;69.79
13235;BME280;6683;48.506;9.050;2023-01-27T03:37:07;98279.00;;;2.69;69.40
13235;BME280;6683;48.506;9.050;2023-01-27T03:40:27;98273.09;;;2.67;69.00
13235;BME280;6683;48.506;9.050;2023-01-27T03:43:48;98278.59;;;2.64;69.63
13235;BME280;6683;48.506;9.050;2023-01-27T03:47:08;98284.63;;;2.65;69.39
13235;BME280;6683;48.506;9.050;2023-01-27T03:50:11;98279.28;;;2.66;69.88
13235;BME280;6683;48.506;9.050;2023-01-27T03:53:19;98282.44;;;2.70;70.12
13235;BME280;6683;48.506;9.050;2023-01-27T03:56:22;98289.31;;;2.71;69.87
13235;BME280;6683;48.506;9.050;2023-01-27T03:59:26;98291.63;;;2.74;69.72
13235;BME280;6683;48.506;9.050;2023-01-27T04:02:28;98289.84;;;2.74;69.89
13235;BME280;6683;48.506;9.050;2023-01-27T04:05:51;98293.44;;;2.73;69.87
13235;BME280;6683;48.506;9.050;2023-01-27T04:09:13;98296.72;;;2.75;69.95
13235;BME280;6683;48.506;9.050;2023-01-27T04:12:19;98288.06;;;2.75;69.57
13235;BME280;6683;48.506;9.050;2023-01-27T04:15:22;98289.69;;;2.76;69.47
13235;BME280;6683;48.506;9.050;2023-01-27T04:18:25;98289.69;;;2.76;69.63
13235;BME280;6683;48.506;9.050;2023-01-27T04:21:28;98290.53;;;2.76;69.29
13235;BME280;6683;48.506;9.050;2023-01-27T04:24:30;98293.97;;;2.77;69.66
13235;BME280;6683;48.506;9.050;2023-01-27T04:27:33;98296.44;;;2.78;69.94
13235;BME280;6683;48.506;9.050;2023-01-27T04:30:37;98297.94;;;2.81;69.30
13235;BME280;6683;48.506;9.050;2023-01-27T04:33:39;98298.78;;;2.81;69.71
13235;BME280;6683;48.506;9.050;2023-01-27T04:36:42;98297.94;;;2.81;69.30
13235;BME280;6683;48.506;9.050;2023-01-27T04:39:45;98304.78;;;2.82;69.82
13235;BME280;6683;48.506;9.050;2023-01-27T04:42:47;98301.25;;;2.83;69.54
13235;BME280;6683;48.506;9.050;2023-01-27T04:45:51;98301.09;;;2.84;69.61
13235;BME280;6683;48.506;9.050;2023-01-27T04:48:54;98307.84;;;2.87;69.65
13235;BME280;6683;48.506;9.050;2023-01-27T04:51:56;98312.09;;;2.88;69.50
13235;BME280;6683;48.506;9.050;2023-01-27T04:54:58;98302.63;;;2.87;69.72
13235;BME280;6683;48.506;9.050;2023-01-27T04:58:01;98303.56;;;2.86;69.23
13235;BME280;6683;48.506;9.050;2023-01-27T05:01:05;98294.81;;;2.87;69.77
13235;BME280;6683;48.506;9.050;2023-01-27T05:04:08;98287.81;;;2.87;69.79
13235;BME280;6683;48.506;9.050;2023-01-27T05:07:10;98292.19;;;2.87;69.46
13235;BME280;6683;48.506;9.050;2023-01-27T05:10:13;98289.84;;;2.84;69.12
13235;BME280;6683;48.506;9.050;2023-01-27T05:13:16;98291.75;;;2.82;69.65
13235;BME280;6683;48.506;9.050;2023-01-27T05:16:21;98301.38;;;2.81;69.65
13235;BME280;6683;48.506;9.050;2023-01-27T05:19:25;98303.03;;;2.82;69.47
13235;BME280;6683;48.506;9.050;2023-01-27T05:22:27;98304.78;;;2.82;69.59
13235;BME280;6683;48.506;9.050;2023-01-27T05:25:30;98313.44;;;2.82;69.77
13235;BME280;6683;48.506;9.050;2023-01-27T05:28:32;98301.38;;;2.81;69.21
13235;BME280;6683;48.506;9.050;2023-01-27T05:31:36;98311.66;;;2.83;69.72
13235;BME280;6683;48.506;9.050;2023-01-27T05:34:39;98309.59;;;2.86;69.52
13235;BME280;6683;48.506;9.050;2023-01-27T05:37:41;98313.88;;;2.87;69.85
13235;BME280;6683;48.506;9.050;2023-01-27T05:40:44;98317.31;;;2.88;69.76
13235;BME280;6683;48.506;9.050;2023-01-27T05:43:50;98314.41;;;2.91;69.74
13235;BME280;6683;48.506;9.050;2023-01-27T05:46:55;98322.25;;;2.91;69.77
13235;BME280;6683;48.506;9.050;2023-01-27T05:49:57;98324.72;;;2.92;69.63
13235;BME280;6683;48.506;9.050;2023-01-27T05:53:00;98331.84;;;2.90;69.33
13235;BME280;6683;48.506;9.050;2023-01-27T05:56:03;98328.44;;;2.90;69.38
13235;BME280;6683;48.506;9.050;2023-01-27T05:59:06;98339.66;;;2.90;69.40
13235;BME280;6683;48.506;9.050;2023-01-27T06:02:10;98328.28;;;2.91;69.51
13235;BME280;6683;48.506;9.050;2023-01-27T06:05:15;98328.44;;;2.90;69.41
13235;BME280;6683;48.506;9.050;2023-01-27T06:08:17;98322.38;;;2.89;69.18
13235;BME280;6683;48.506;9.050;2023-01-27T06:11:21;98330.06;;;2.91;69.28
13235;BME280;6683;48.506;9.050;2023-01-27T06:14:23;98343.09;;;2.91;69.26
13235;BME280;6683;48.506;9.050;2023-01-27T06:17:27;98338.03;;;2.89;69.62
13235;BME280;6683;48.506;9.050;2023-01-27T06:20:30;98343.38;;;2.88;69.74
13235;BME280;6683;48.506;9.050;2023-01-27T06:23:33;98340.78;;;2.88;69.78
13235;BME280;6683;48.506;9.050;2023-01-27T06:26:36;98349.28;;;2.90;69.79
13235;BME280;6683;48.506;9.050;2023-01-27T06:29:38;98349.97;;;2.92;69.42
13235;BME280;6683;48.506;9.050;2023-01-27T06:32:42;98345.56;;;2.92;69.58
13235;BME280;6683;48.506;9.050;2023-01-27T06:35:44;98348.06;;;2.94;69.80
13235;BME280;6683;48.506;9.050;2023-01-27T06:38:47;98346.25;;;2.94;69.53
13235;BME280;6683;48.506;9.050;2023-01-27T06:41:50;98343.53;;;2.96;69.70
13235;BME280;6683;48.506;9.050;2023-01-27T06:44:52;98354.06;;;2.94;69.62
13235;BME280;6683;48.506;9.050;2023-01-27T06:47:58;98355.72;;;2.95;69.24
13235;BME280;6683;48.506;9.050;2023-01-27T06:51:01;98352.16;;;2.96;69.10
13235;BME280;6683;48.506;9.050;2023-01-27T06:54:04;98358.34;;;2.95;69.41
13235;BME280;6683;48.506;9.050;2023-01-27T06:57:08;98356.69;;;2.94;69.42
13235;BME280;6683;48.506;9.050;2023-01-27T07:00:12;98365.47;;;2.93;69.44
13235;BME280;6683;48.506;9.050;2023-01-27T07:03:16;98374.91;;;2.94;69.44
13235;BME280;6683;48.506;9.050;2023-01-27T07:06:19;98373.00;;;2.96;69.48
13235;BME280;6683;48.506;9.050;2023-01-27T07:09:21;98389.47;;;2.97;69.27
13235;BME280;6683;48.506;9.050;2023-01-27T07:12:23;98390.31;;;2.97;69.16
13235;BME280;6683;48.506;9.050;2023-01-27T07:15:26;98395.66;;;2.96;69.48
13235;BME280;6683;48.506;9.050;2023-01-27T07:18:31;98400.06;;;2.95;69.16
13235;BME280;6683;48.506;9.050;2023-01-27T07:21:34;98404.56;;;2.93;69.17
13235;BME280;6683;48.506;9.050;2023-01-27T07:24:37;98407.31;;;2.92;69.28
13235;BME280;6683;48.506;9.050;2023-01-27T07:27:39;98408.41;;;2.89;69.41
13235;BME280;6683;48.506;9.050;2023-01-27T07:30:41;98422.38;;;2.88;69.35
13235;BME280;6683;48.506;9.050;2023-01-27T07:33:46;98415.53;;;2.87;69.27
13235;BME280;6683;48.506;9.050;2023-01-27T07:36:48;98408.66;;;2.86;68.93
13235;BME280;6683;48.506;9.050;2023-01-27T07:39:51;98419.22;;;2.85;69.49
13235;BME280;6683;48.506;9.050;2023-01-27T07:42:56;98424.31;;;2.86;69.48
13235;BME280;6683;48.506;9.050;2023-01-27T07:45:59;98406.06;;;2.86;69.18
13235;BME280;6683;48.506;9.050;2023-01-27T07:49:03;98412.09;;;2.87;69.38
13235;BME280;6683;48.506;9.050;2023-01-27T07:52:05;98421.59;;;2.88;69.40
13235;BME280;6683;48.506;9.050;2023-01-27T07:55:08;98426.50;;;2.91;69.46
13235;BME280;6683;48.506;9.050;2023-01-27T07:58:11;98431.59;;;2.92;69.47
13235;BME280;6683;48.506;9.050;2023-01-27T08:01:13;98435.03;;;2.93;69.13
13235;BME280;6683;48.506;9.050;2023-01-27T08:04:17;98429.81;;;2.93;69.17
13235;BME280;6683;48.506;9.050;2023-01-27T08:07:20;98431.47;;;2.94;69.19
13235;BME280;6683;48.506;9.050;2023-01-27T08:10:22;98434.78;;;2.96;69.49
13235;BME280;6683;48.506;9.050;2023-01-27T08:13:25;98435.47;;;2.98;69.67
13235;BME280;6683;48.506;9.050;2023-01-27T08:16:27;98439.72;;;2.99;68.98
13235;BME280;6683;48.506;9.050;2023-01-27T08:19:31;98431.19;;;2.97;68.93
13235;BME280;6683;48.506;9.050;2023-01-27T08:22:34;98430.34;;;2.96;68.99
13235;BME280;6683;48.506;9.050;2023-01-27T08:25:36;98438.19;;;2.96;69.57
13235;BME280;6683;48.506;9.050;2023-01-27T08:28:39;98439.72;;;2.99;69.38
13235;BME280;6683;48.506;9.050;2023-01-27T08:31:42;98441.38;;;3.00;69.19
13235;BME280;6683;48.506;9.050;2023-01-27T08:34:45;98441.22;;;3.01;68.93
13235;BME280;6683;48.506;9.050;2023-01-27T08:37:48;98445.63;;;3.01;69.38
13235;BME280;6683;48.506;9.050;2023-01-27T08:40:51;98444.53;;;3.03;69.45
13235;BME280;6683;48.506;9.050;2023-01-27T08:43:54;98447.00;;;3.05;69.22
13235;BME280;6683;48.506;9.050;2023-01-27T08:46:57;98458.13;;;3.07;69.54
13235;BME280;6683;48.506;9.050;2023-01-27T08:50:00;98459.78;;;3.08;69.15
13235;BME280;6683;48.506;9.050;2023-01-27T08:53:03;98460.47;;;3.10;69.30
13235;BME280;6683;48.506;9.050;2023-01-27T08:56:08;98465.53;;;3.11;69.61
13235;BME280;6683;48.506;9.050;2023-01-27T08:59:12;98462.78;;;3.13;69.14
13235;BME280;6683;48.506;9.050;2023-01-27T09:02:14;98454.72;;;3.16;69.21
13235;BME280;6683;48.506;9.050;2023-01-27T09:05:19;98464.22;;;3.17;69.35
13235;BME280;6683;48.506;9.050;2023-01-27T09:08:22;98463.22;;;3.18;68.87
13235;BME280;6683;48.506;9.050;2023-01-27T09:11:25;98459.78;;;3.17;69.10
13235;BME280;6683;48.506;9.050;2023-01-27T09:14:28;98459.53;;;3.20;69.42
13235;BME280;6683;48.506;9.050;2023-01-27T09:17:30;98467.22;;;3.22;69.14
13235;BME280;6683;48.506;9.050;2023-01-27T09:20:34;98461.84;;;3.23;69.10
13235;BME280;6683;48.506;9.050;2023-01-27T09:23:37;98454.03;;;3.23;68.93
13235;BME280;6683;48.506;9.050;2023-01-27T09:26:40;98447.72;;;3.26;69.18
13235;BME280;6683;48.506;9.050;2023-01-27T09:29:42;98457.34;;;3.25;69.14
13235;BME280;6683;48.506;9.050;2023-01-27T09:32:44;98454.63;;;3.27;69.00
13235;BME280;6683;48.506;9.050;2023-01-27T09:35:51;98458.84;;;3.28;69.12
13235;BME280;6683;48.506;9.050;2023-01-27T09:38:59;98447.34;;;3.31;69.46
13235;BME280;6683;48.506;9.050;2023-01-27T09:42:38;98446.38;;;3.32;69.42
13235;BME280;6683;48.506;9.050;2023-01-27T09:46:11;98453.09;;;3.34;69.67
13235;BME280;6683;48.506;9.050;2023-01-27T09:49:40;98445.16;;;3.36;68.75
13235;BME280;6683;48.506;9.050;2023-01-27T09:56:48;98464.09;;;3.38;69.46
13235;BME280;6683;48.506;9.050;2023-01-27T10:00:10;98458.19;;;3.36;69.05
13235;BME280;6683;48.506;9.050;2023-01-27T10:03:29;98453.94;;;3.35;69.19
13235;BME280;6683;48.506;9.050;2023-01-27T10:07:07;98467.81;;;3.35;69.35
13235;BME280;6683;48.506;9.050;2023-01-27T10:10:32;98462.59;;;3.35;68.98
13235;BME280;6683;48.506;9.050;2023-01-27T10:13:50;98470.28;;;3.37;69.18
13235;BME280;6683;48.506;9.050;2023-01-27T10:17:16;98467.66;;;3.37;68.64
13235;BME280;6683;48.506;9.050;2023-01-27T10:20:28;98477.25;;;3.36;68.87
13235;BME280;6683;48.506;9.050;2023-01-27T10:23:46;98480.72;;;3.37;68.69
13235;BME280;6683;48.506;9.050;2023-01-27T10:26:57;98470.97;;;3.39;69.26
13235;BME280;6683;48.506;9.050;2023-01-27T10:30:10;98487.16;;;3.42;68.52
13235;BME280;6683;48.506;9.050;2023-01-27T10:33:17;98488.81;;;3.43;68.87
13235;BME280;6683;48.506;9.050;2023-01-27T10:36:26;98481.94;;;3.42;68.78
13235;BME280;6683;48.506;9.050;2023-01-27T10:39:39;98492.53;;;3.41;68.75
13235;BME280;6683;48.506;9.050;2023-01-27T10:42:56;98481.25;;;3.40;68.91
13235;BME280;6683;48.506;9.050;2023-01-27T10:46:09;98471.94;;;3.38;68.57
13235;BME280;6683;48.506;9.050;2023-01-27T10:49:19;98485.53;;;3.41;68.77
13235;BME280;6683;48.506;9.050;2023-01-27T10:52:29;98479.34;;;3.42;68.87
13235;BME280;6683;48.506;9.050;2023-01-27T10:55:37;98485.38;;;3.43;68.70
13235;BME280;6683;48.506;9.050;2023-01-27T10:59:01;98479.47;;;3.41;68.79
13235;BME280;6683;48.506;9.050;2023-01-27T11:02:13;98484.56;;;3.42;68.94
13235;BME280;6683;48.506;9.050;2023-01-27T11:05:26;98474.53;;;3.47;68.62
13235;BME280;6683;48.506;9.050;2023-01-27T11:08:35;98478.38;;;3.53;69.04
13235;BME280;6683;48.506;9.050;2023-01-27T11:11:40;98476.34;;;3.56;68.69
13235;BME280;6683;48.506;9.050;2023-01-27T11:14:50;98478.00;;;3.57;68.82
13235;BME280;6683;48.506;9.050;2023-01-27T11:17:59;98475.53;;;3.56;68.34
13235;BME280;6683;48.506;9.050;2023-01-27T11:21:06;98478.97;;;3.56;68.53
13235;BME280;6683;48.506;9.050;2023-01-27T11:24:21;98478.13;;;3.56;68.60
13235;BME280;6683;48.506;9.050;2023-01-27T11:27:44;98477.31;;;3.55;68.43
13235;BME280;6683;48.506;9.050;2023-01-27T11:31:00;98466.03;;;3.55;68.69
13235;BME280;6683;48.506;9.050;2023-01-27T11:34:10;98471.41;;;3.53;68.28
13235;BME280;6683;48.506;9.050;2023-01-27T11:37:18;98470.56;;;3.53;68.16
13235;BME280;6683;48.506;9.050;2023-01-27T11:40:28;98467.25;;;3.51;68.28
13235;BME280;6683;48.506;9.050;2023-01-27T11:43:32;98473.31;;;3.51;68.29
13235;BME280;6683;48.506;9.050;2023-01-27T11:46:38;98468.38;;;3.48;67.75
13235;BME280;6683;48.506;9.050;2023-01-27T11:49:43;98463.97;;;3.49;68.21
13235;BME280;6683;48.506;9.050;2023-01-27T11:52:51;98453.41;;;3.50;68.55
13235;BME280;6683;48.506;9.050;2023-01-27T11:55:58;98448.75;;;3.54;68.82
13235;BME280;6683;48.506;9.050;2023-01-27T11:59:07;98438.84;;;3.57;68.49
13235;BME280;6683;48.506;9.050;2023-01-27T12:02:24;98440.09;;;3.63;68.83
13235;BME280;6683;48.506;9.050;2023-01-27T12:05:33;98433.75;;;3.65;68.20
13235;BME280;6683;48.506;9.050;2023-01-27T12:08:41;98428.69;;;3.64;68.59
13235;BME280;6683;48.506;9.050;2023-01-27T12:11:44;98438.72;;;3.68;67.87
13235;BME280;6683;48.506;9.050;2023-01-27T12:14:48;98430.06;;;3.68;68.46
13235;BME280;6683;48.506;9.050;2023-01-27T12:17:57;98432.41;;;3.71;68.65
13235;BME280;6683;48.506;9.050;2023-01-27T12:21:04;98437.34;;;3.74;68.26
13235;BME280;6683;48.506;9.050;2023-01-27T12:24:21;98435.41;;;3.76;68.36
13235;BME280;6683;48.506;9.050;2023-01-27T12:27:29;98428.84;;;3.81;68.13
13235;BME280;6683;48.506;9.050;2023-01-27T12:30:36;98431.44;;;3.81;68.28
13235;BME280;6683;48.506;9.050;2023-01-27T12:33:44;98434.06;;;3.81;68.14
13235;BME280;6683;48.506;9.050;2023-01-27T12:36:48;98434.84;;;3.82;67.97
13235;BME280;6683;48.506;9.050;2023-01-27T12:39:55;98437.75;;;3.79;67.67
13235;BME280;6683;48.506;9.050;2023-01-27T12:43:10;98425.78;;;3.76;68.41
13235;BME280;6683;48.506;9.050;2023-01-27T12:46:21;98421.56;;;3.75;67.75
13235;BME280;6683;48.506;9.050;2023-01-27T12:49:31;98423.34;;;3.75;67.80
13235;BME280;6683;48.506;9.050;2023-01-27T12:52:34;98420.56;;;3.76;67.94
13235;BME280;6683;48.506;9.050;2023-01-27T12:55:40;98429.38;;;3.75;68.21
13235;BME280;6683;48.506;9.050;2023-01-27T12:58:45;98422.09;;;3.79;68.00
13235;BME280;6683;48.506;9.050;2023-01-27T13:02:01;98430.75;;;3.79;68.06
13235;BME280;6683;48.506;9.050;2023-01-27T13:05:15;98419.63;;;3.77;68.60
13235;BME280;6683;48.506;9.050;2023-01-27T13:08:20;98428.84;;;3.81;67.77
13235;BME280;6683;48.506;9.050;2023-01-27T13:11:33;98431.28;;;3.83;68.22
13235;BME280;6683;48.506;9.050;2023-01-27T13:14:41;98428.69;;;3.83;68.00
13235;BME280;6683;48.506;9.050;2023-01-27T13:17:45;98422.47;;;3.84;67.97
13235;BME280;6683;48.506;9.050;2023-01-27T13:20:55;98430.19;;;3.85;67.77
13235;BME280;6683;48.506;9.050;2023-01-27T13:24:01;98428.13;;;3.89;67.99
13235;BME280;6683;48.506;9.050;2023-01-27T13:27:11;98421.13;;;3.89;67.80
13235;BME280;6683;48.506;9.050;2023-01-27T13:30:24;98426.06;;;3.92;67.83
13235;BME280;6683;48.506;9.050;2023-01-27T13:33:36;98433.78;;;3.94;67.73
13235;BME280;6683;48.506;9.050;2023-01-27T13:36:48;98429.50;;;3.93;68.04
13235;BME280;6683;48.506;9.050;2023-01-27T13:40:01;98423.75;;;3.89;67.58
13235;BME280;6683;48.506;9.050;2023-01-27T13:43:11;98425.50;;;3.89;68.10
13235;BME280;6683;48.506;9.050;2023-01-27T13:46:18;98424.84;;;3.87;67.60
13235;BME280;6683;48.506;9.050;2023-01-27T13:49:32;98430.19;;;3.85;68.10
13235;BME280;6683;48.506;9.050;2023-01-27T13:52:38;98435.28;;;3.87;67.98
13235;BME280;6683;48.506;9.050;2023-01-27T13:56:04;98437.06;;;3.86;67.30
13235;BME280;6683;48.506;9.050;2023-01-27T13:59:39;98448.47;;;3.85;67.64
13235;BME280;6683;48.506;9.050;2023-01-27T14:03:18;98456.31;;;3.85;67.74
13235;BME280;6683;48.506;9.050;2023-01-27T14:06:42;98463.56;;;3.82;68.02
13235;BME280;6683;48.506;9.050;2023-01-27T14:10:00;98466.06;;;3.83;67.75
13235;BME280;6683;48.506;9.050;2023-01-27T14:13:21;98461.53;;;3.85;68.02
13235;BME280;6683;48.506;9.050;2023-01-27T14:16:33;98458.91;;;3.85;68.15
13235;BME280;6683;48.506;9.050;2023-01-27T14:19:53;98465.78;;;3.86;67.96
13235;BME280;6683;48.506;9.050;2023-01-27T14:23:21;98466.59;;;3.87;67.93
13235;BME280;6683;48.506;9.050;2023-01-27T14:26:44;98459.72;;;3.86;67.91
13235;BME280;6683;48.506;9.050;2023-01-27T14:29:56;98467.56;;;3.86;67.95
13235;BME280;6683;48.506;9.050;2023-01-27T14:33:08;98464.81;;;3.87;67.50
13235;BME280;6683;48.506;9.050;2023-01-27T14:36:17;98474.28;;;3.88;67.82
13235;BME280;6683;48.506;9.050;2023-01-27T14:39:31;98467.28;;;3.89;67.79
13235;BME280;6683;48.506;9.050;2023-01-27T14:42:46;98471.56;;;3.90;67.56
13235;BME280;6683;48.506;9.050;2023-01-27T14:45:55;98476.63;;;3.91;68.18
13235;BME280;6683;48.506;9.050;2023-01-27T14:49:07;98472.25;;;3.92;67.88
13235;BME280;6683;48.506;9.050;2023-01-27T14:52:29;98474.72;;;3.93;67.59
13235;BME280;6683;48.506;9.050;2023-01-27T14:55:46;98476.34;;;3.94;68.29
13235;BME280;6683;48.506;9.050;2023-01-27T14:58:58;98475.41;;;3.95;68.15
13235;BME280;6683;48.506;9.050;2023-01-27T15:02:19;98482.41;;;3.95;67.71
13235;BME280;6683;48.506;9.050;2023-01-27T15:05:31;98473.63;;;3.96;67.94
13235;BME280;6683;48.506;9.050;2023-01-27T15:08:42;98478.00;;;3.95;68.07
13235;BME280;6683;48.506;9.050;2023-01-27T15:12:07;98486.00;;;3.94;67.96
13235;BME280;6683;48.506;9.050;2023-01-27T15:15:40;98482.69;;;3.92;68.17
13235;BME280;6683;48.506;9.050;2023-01-27T15:19:09;98482.81;;;3.90;68.12
13235;BME280;6683;48.506;9.050;2023-01-27T15:22:58;98482.13;;;3.88;67.50
13235;BME280;6683;48.506;9.050;2023-01-27T15:26:06;98482.00;;;3.90;68.02
13235;BME280;6683;48.506;9.050;2023-01-27T15:29:12;98479.41;;;3.90;67.75
13235;BME280;6683;48.506;9.050;2023-01-27T15:32:35;98476.91;;;3.88;67.52
13235;BME280;6683;48.506;9.050;2023-01-27T15:35:38;98476.78;;;3.90;68.21
13235;BME280;6683;48.506;9.050;2023-01-27T15:38:41;98475.28;;;3.87;67.57
13235;BME280;6683;48.506;9.050;2023-01-27T15:42:10;98475.38;;;3.86;67.48
13235;BME280;6683;48.506;9.050;2023-01-27T15:45:27;98482.41;;;3.85;67.90
13235;BME280;6683;48.506;9.050;2023-01-27T15:48:33;98485.97;;;3.84;67.48
13235;BME280;6683;48.506;9.050;2023-01-27T15:51:39;98480.91;;;3.83;67.59
13235;BME280;6683;48.506;9.050;2023-01-27T15:54:42;98483.66;;;3.81;67.69
13235;BME280;6683;48.506;9.050;2023-01-27T15:57:51;98496.81;;;3.80;67.51
13235;BME280;6683;48.506;9.050;2023-01-27T16:00:57;98491.59;;;3.80;67.98
13235;BME280;6683;48.506;9.050;2023-01-27T16:04:13;98498.63;;;3.79;68.39
13235;BME280;6683;48.506;9.050;2023-01-27T16:07:23;98504.53;;;3.81;67.98
13235;BME280;6683;48.506;9.050;2023-01-27T16:10:30;98520.22;;;3.81;67.79
13235;BME280;6683;48.506;9.050;2023-01-27T16:13:34;98521.31;;;3.79;67.57
13235;BME280;6683;48.506;9.050;2023-01-27T16:16:38;98523.38;;;3.75;67.78
13235;BME280;6683;48.506;9.050;2023-01-27T16:19:44;98534.06;;;3.72;68.08
13235;BME280;6683;48.506;9.050;2023-01-27T16:22:57;98536.81;;;3.71;67.32
13235;BME280;6683;48.506;9.050;2023-01-27T16:26:14;98539.53;;;3.69;67.63
13235;BME280;6683;48.506;9.050;2023-01-27T16:29:30;98545.59;;;3.70;67.99
13235;BME280;6683;48.506;9.050;2023-01-27T16:32:38;98545.88;;;3.67;67.57
13235;BME280;6683;48.506;9.050;2023-01-27T16:35:50;98550.28;;;3.66;67.71
13235;BME280;6683;48.506;9.050;2023-01-27T16:38:56;98552.72;;;3.68;68.17
13235;BME280;6683;48.506;9.050;2023-01-27T16:42:00;98565.63;;;3.69;67.88
13235;BME280;6683;48.506;9.050;2023-01-27T16:45:14;98567.72;;;3.66;67.86
13235;BME280;6683;48.506;9.050;2023-01-27T16:48:27;98561.94;;;3.62;68.03
13235;BME280;6683;48.506;9.050;2023-01-27T16:51:32;98570.72;;;3.61;67.78
13235;BME280;6683;48.506;9.050;2023-01-27T16:54:37;98569.22;;;3.59;68.07
13235;BME280;6683;48.506;9.050;2023-01-27T16:57:44;98559.72;;;3.58;68.04
13235;BME280;6683;48.506;9.050;2023-01-27T17:00:47;98569.06;;;3.60;68.01
13235;BME280;6683;48.506;9.050;2023-01-27T17:03:55;98568.09;;;3.61;68.09
13235;BME280;6683;48.506;9.050;2023-01-27T17:07:06;98566.47;;;3.60;68.32